sensor_id;sensor_type;location;lat;lon;timestamp;pressure;altitude;pressure_sealevel;temperature;humidity
71109;BME280;59614;51.012;-1.648;2023-05-02T00:00:22;101376.94;;;11.33;91.86
71109;BME280;59614;51.012;-1.648;2023-05-02T00:02:48;101375.16;;;11.32;91.82
71109;BME280;59614;51.012;-1.648;2023-05-02T00:05:13;101381.31;;;11.35;90.96
71109;BME280;59614;51.012;-1.648;2023-05-02T00:07:39;101379.59;;;11.23;90.44
71109;BME280;59614;51.012;-1.648;2023-05-02T00:10:05;101373.47;;;11.09;91.20
71109;BME280;59614;51.012;-1.648;2023-05-02T00:12:30;101377.91;;;11.05;91.22
71109;BME280;59614;51.012;-1.648;2023-05-02T00:14:56;101376.13;;;11.07;90.99
71109;BME280;59614;51.012;-1.648;2023-05-02T00:17:22;101378.81;;;11.03;90.99
71109;BME280;59614;51.012;-1.648;2023-05-02T00:19:47;101373.50;;;10.98;90.93
71109;BME280;59614;51.012;-1.648;2023-05-02T00:22:13;101373.59;;;10.65;91.00
71109;BME280;59614;51.012;-1.648;2023-05-02T00:24:38;101383.28;;;10.62;92.24
71109;BME280;59614;51.012;-1.648;2023-05-02T00:27:04;101378.88;;;10.59;92.55
71109;BME280;59614;51.012;-1.648;2023-05-02T00:29:30;101373.59;;;10.62;92.33
71109;BME280;59614;51.012;-1.648;2023-05-02T00:31:56;101378.00;;;10.66;91.72
71109;BME280;59614;51.012;-1.648;2023-05-02T00:34:22;101377.09;;;10.74;91.59
71109;BME280;59614;51.012;-1.648;2023-05-02T00:36:48;101375.34;;;10.79;91.35
71109;BME280;59614;51.012;-1.648;2023-05-02T00:39:13;101370.03;;;10.85;91.12
71109;BME280;59614;51.012;-1.648;2023-05-02T00:41:39;101384.97;;;10.88;91.18
71109;BME280;59614;51.012;-1.648;2023-05-02T00:44:04;101376.19;;;10.84;91.30
71109;BME280;59614;51.012;-1.648;2023-05-02T00:46:29;101387.63;;;10.89;91.41
71109;BME280;59614;51.012;-1.648;2023-05-02T00:48:55;101389.41;;;10.87;91.27
71109;BME280;59614;51.012;-1.648;2023-05-02T00:51:20;101392.03;;;10.84;90.51
71109;BME280;59614;51.012;-1.648;2023-05-02T00:53:46;101382.34;;;10.89;91.44
71109;BME280;59614;51.012;-1.648;2023-05-02T00:56:12;101385.00;;;10.78;91.36
71109;BME280;59614;51.012;-1.648;2023-05-02T00:58:39;101384.13;;;10.75;91.33
71109;BME280;59614;51.012;-1.648;2023-05-02T01:01:10;101387.66;;;10.71;91.63
71109;BME280;59614;51.012;-1.648;2023-05-02T01:14:14;101385.06;;;10.50;91.88
71109;BME280;59614;51.012;-1.648;2023-05-02T01:16:42;101390.31;;;10.47;91.47
71109;BME280;59614;51.012;-1.648;2023-05-02T01:19:57;101398.25;;;10.43;91.38
71109;BME280;59614;51.012;-1.648;2023-05-02T01:22:15;101396.47;;;10.43;91.51
71109;BME280;59614;51.012;-1.648;2023-05-02T01:30:21;101399.09;;;10.32;90.96
71109;BME280;59614;51.012;-1.648;2023-05-02T01:32:50;101408.78;;;10.29;90.80
71109;BME280;59614;51.012;-1.648;2023-05-02T01:35:17;101413.19;;;10.30;91.02
71109;BME280;59614;51.012;-1.648;2023-05-02T01:37:45;101407.00;;;10.29;91.28
71109;BME280;59614;51.012;-1.648;2023-05-02T01:40:16;101417.53;;;10.26;91.63
71109;BME280;59614;51.012;-1.648;2023-05-02T01:42:43;101407.00;;;10.29;91.16
71109;BME280;59614;51.012;-1.648;2023-05-02T01:45:11;101404.38;;;10.34;91.00
71109;BME280;59614;51.012;-1.648;2023-05-02T01:47:37;101397.34;;;10.53;90.35
71109;BME280;59614;51.012;-1.648;2023-05-02T01:50:06;101404.41;;;10.54;90.15
71109;BME280;59614;51.012;-1.648;2023-05-02T01:52:33;101407.00;;;10.70;90.29
71109;BME280;59614;51.012;-1.648;2023-05-02T01:55:00;101397.34;;;10.75;89.44
71109;BME280;59614;51.012;-1.648;2023-05-02T01:57:26;101401.72;;;10.77;88.14
71109;BME280;59614;51.012;-1.648;2023-05-02T01:59:54;101399.09;;;10.80;88.25
71109;BME280;59614;51.012;-1.648;2023-05-02T02:02:23;101401.72;;;10.73;88.79
71109;BME280;59614;51.012;-1.648;2023-05-02T02:04:52;101404.38;;;10.71;87.93
71109;BME280;59614;51.012;-1.648;2023-05-02T02:07:19;101406.16;;;10.63;88.37
71109;BME280;59614;51.012;-1.648;2023-05-02T02:09:45;101400.84;;;10.78;88.60
71109;BME280;59614;51.012;-1.648;2023-05-02T02:12:14;101403.50;;;10.77;87.73
71109;BME280;59614;51.012;-1.648;2023-05-02T02:14:42;101410.53;;;10.90;86.37
71109;BME280;59614;51.012;-1.648;2023-05-02T02:17:29;101410.50;;;10.96;86.00
71109;BME280;59614;51.012;-1.648;2023-05-02T02:20:00;101418.44;;;10.96;85.77
71109;BME280;59614;51.012;-1.648;2023-05-02T02:22:27;101412.25;;;10.97;85.32
71109;BME280;59614;51.012;-1.648;2023-05-02T02:24:55;101419.31;;;10.95;85.39
71109;BME280;59614;51.012;-1.648;2023-05-02T02:27:21;101423.75;;;10.82;86.03
71109;BME280;59614;51.012;-1.648;2023-05-02T02:29:47;101422.88;;;10.74;86.00
71109;BME280;59614;51.012;-1.648;2023-05-02T02:32:12;101426.38;;;10.67;86.25
71109;BME280;59614;51.012;-1.648;2023-05-02T02:34:38;101424.63;;;10.49;86.72
71109;BME280;59614;51.012;-1.648;2023-05-02T02:37:08;101427.25;;;10.30;87.00
71109;BME280;59614;51.012;-1.648;2023-05-02T02:42:31;101437.78;;;10.32;89.38
71109;BME280;59614;51.012;-1.648;2023-05-02T02:47:46;101428.13;;;10.48;87.74
71109;BME280;59614;51.012;-1.648;2023-05-02T02:50:15;101437.81;;;10.57;86.78
71109;BME280;59614;51.012;-1.648;2023-05-02T02:53:04;101440.47;;;10.57;87.00
71109;BME280;59614;51.012;-1.648;2023-05-02T02:55:45;101451.91;;;10.45;87.16
71109;BME280;59614;51.012;-1.648;2023-05-02T02:58:29;101448.41;;;10.43;86.50
71109;BME280;59614;51.012;-1.648;2023-05-02T03:00:56;101452.72;;;10.25;86.22
71109;BME280;59614;51.012;-1.648;2023-05-02T03:03:25;101456.16;;;9.84;86.78
71109;BME280;59614;51.012;-1.648;2023-05-02T03:05:54;101460.53;;;9.76;87.63
71109;BME280;59614;51.012;-1.648;2023-05-02T03:08:21;101463.13;;;9.68;88.56
71109;BME280;59614;51.012;-1.648;2023-05-02T03:10:46;101471.03;;;9.69;88.44
71109;BME280;59614;51.012;-1.648;2023-05-02T03:13:12;101464.88;;;9.66;88.65
71109;BME280;59614;51.012;-1.648;2023-05-02T03:18:18;101472.75;;;9.61;89.23
71109;BME280;59614;51.012;-1.648;2023-05-02T03:20:44;101472.72;;;9.47;90.32
71109;BME280;59614;51.012;-1.648;2023-05-02T03:23:09;101468.34;;;9.54;89.35
71109;BME280;59614;51.012;-1.648;2023-05-02T03:25:35;101472.72;;;9.53;89.59
71109;BME280;59614;51.012;-1.648;2023-05-02T03:28:01;101472.69;;;9.44;89.81
71109;BME280;59614;51.012;-1.648;2023-05-02T03:30:27;101467.41;;;9.38;90.31
71109;BME280;59614;51.012;-1.648;2023-05-02T03:32:52;101470.06;;;9.47;89.98
71109;BME280;59614;51.012;-1.648;2023-05-02T03:35:17;101480.53;;;9.36;89.75
71109;BME280;59614;51.012;-1.648;2023-05-02T03:37:44;101475.19;;;9.24;90.15
71109;BME280;59614;51.012;-1.648;2023-05-02T03:40:09;101475.06;;;8.99;90.72
71109;BME280;59614;51.012;-1.648;2023-05-02T03:42:35;101482.16;;;9.09;90.82
71109;BME280;59614;51.012;-1.648;2023-05-02T03:45:07;101484.84;;;9.20;91.37
71109;BME280;59614;51.012;-1.648;2023-05-02T03:47:33;101488.44;;;9.35;90.67
71109;BME280;59614;51.012;-1.648;2023-05-02T03:49:58;101493.75;;;9.38;90.80
71109;BME280;59614;51.012;-1.648;2023-05-02T03:52:24;101494.66;;;9.48;89.58
71109;BME280;59614;51.012;-1.648;2023-05-02T03:54:50;101497.97;;;9.16;90.61
71109;BME280;59614;51.012;-1.648;2023-05-02T03:57:16;101498.00;;;9.19;90.04
71109;BME280;59614;51.012;-1.648;2023-05-02T03:59:42;101498.78;;;9.07;91.30
71109;BME280;59614;51.012;-1.648;2023-05-02T04:02:10;101497.00;;;9.01;92.45
71109;BME280;59614;51.012;-1.648;2023-05-02T04:04:36;101495.28;;;9.05;92.43
71109;BME280;59614;51.012;-1.648;2023-05-02T04:07:02;101496.31;;;9.25;91.81
71109;BME280;59614;51.012;-1.648;2023-05-02T04:09:29;101509.53;;;9.33;91.36
71109;BME280;59614;51.012;-1.648;2023-05-02T04:11:54;101501.50;;;9.18;91.09
71109;BME280;59614;51.012;-1.648;2023-05-02T04:14:20;101508.56;;;9.25;91.37
71109;BME280;59614;51.012;-1.648;2023-05-02T04:16:49;101506.81;;;9.24;91.00
71109;BME280;59614;51.012;-1.648;2023-05-02T04:19:15;101510.34;;;9.26;91.27
71109;BME280;59614;51.012;-1.648;2023-05-02T04:21:42;101505.94;;;9.25;91.24
71109;BME280;59614;51.012;-1.648;2023-05-02T04:24:08;101499.84;;;9.35;91.92
71109;BME280;59614;51.012;-1.648;2023-05-02T04:26:33;101510.47;;;9.45;91.34
71109;BME280;59614;51.012;-1.648;2023-05-02T04:28:59;101507.84;;;9.46;91.23
71109;BME280;59614;51.012;-1.648;2023-05-02T04:31:24;101507.84;;;9.49;91.06
71109;BME280;59614;51.012;-1.648;2023-05-02T04:33:50;101499.94;;;9.48;90.23
71109;BME280;59614;51.012;-1.648;2023-05-02T04:36:16;101508.69;;;9.42;90.48
71109;BME280;59614;51.012;-1.648;2023-05-02T04:38:43;101516.56;;;9.37;90.32
71109;BME280;59614;51.012;-1.648;2023-05-02T04:41:08;101510.38;;;9.31;90.16
71109;BME280;59614;51.012;-1.648;2023-05-02T04:43:34;101516.50;;;9.28;90.27
71109;BME280;59614;51.012;-1.648;2023-05-02T04:46:00;101513.84;;;9.25;91.04
71109;BME280;59614;51.012;-1.648;2023-05-02T04:48:25;101512.94;;;9.21;90.88
71109;BME280;59614;51.012;-1.648;2023-05-02T04:50:51;101519.97;;;9.24;90.71
71109;BME280;59614;51.012;-1.648;2023-05-02T04:53:18;101522.66;;;9.32;90.63
71109;BME280;59614;51.012;-1.648;2023-05-02T04:55:44;101525.38;;;9.42;91.03
71109;BME280;59614;51.012;-1.648;2023-05-02T04:58:09;101533.38;;;9.55;90.68
71109;BME280;59614;51.012;-1.648;2023-05-02T05:00:35;101522.81;;;9.52;89.95
71109;BME280;59614;51.012;-1.648;2023-05-02T05:03:00;101519.28;;;9.54;90.04
71109;BME280;59614;51.012;-1.648;2023-05-02T05:05:26;101535.09;;;9.54;90.09
71109;BME280;59614;51.012;-1.648;2023-05-02T05:07:51;101531.47;;;9.32;91.54
71109;BME280;59614;51.012;-1.648;2023-05-02T05:10:17;101532.38;;;9.34;92.76
71109;BME280;59614;51.012;-1.648;2023-05-02T05:12:42;101543.78;;;9.35;92.80
71109;BME280;59614;51.012;-1.648;2023-05-02T05:15:08;101539.38;;;9.35;93.45
71109;BME280;59614;51.012;-1.648;2023-05-02T05:17:34;101545.44;;;9.19;95.11
71109;BME280;59614;51.012;-1.648;2023-05-02T05:20:00;101543.69;;;9.24;94.28
71109;BME280;59614;51.012;-1.648;2023-05-02T05:22:25;101545.47;;;9.26;95.34
71109;BME280;59614;51.012;-1.648;2023-05-02T05:24:54;101543.75;;;9.30;95.77
71109;BME280;59614;51.012;-1.648;2023-05-02T05:27:20;101549.88;;;9.27;95.80
71109;BME280;59614;51.012;-1.648;2023-05-02T05:29:46;101541.94;;;9.23;96.40
71109;BME280;59614;51.012;-1.648;2023-05-02T05:32:12;101546.28;;;9.18;97.21
71109;BME280;59614;51.012;-1.648;2023-05-02T05:34:37;101540.13;;;9.16;98.02
71109;BME280;59614;51.012;-1.648;2023-05-02T05:37:03;101555.06;;;9.18;98.33
71109;BME280;59614;51.012;-1.648;2023-05-02T05:39:29;101556.00;;;9.25;98.09
71109;BME280;59614;51.012;-1.648;2023-05-02T05:41:54;101557.81;;;9.35;98.39
71109;BME280;59614;51.012;-1.648;2023-05-02T05:44:21;101561.28;;;9.28;99.37
71109;BME280;59614;51.012;-1.648;2023-05-02T05:46:47;101559.66;;;9.46;99.76
71109;BME280;59614;51.012;-1.648;2023-05-02T05:49:14;101563.22;;;9.57;99.34
71109;BME280;59614;51.012;-1.648;2023-05-02T05:51:40;101564.91;;;9.44;99.06
71109;BME280;59614;51.012;-1.648;2023-05-02T05:54:05;101565.84;;;9.57;100.00
71109;BME280;59614;51.012;-1.648;2023-05-02T05:56:32;101569.25;;;9.36;100.00
71109;BME280;59614;51.012;-1.648;2023-05-02T05:58:57;101569.50;;;9.74;100.00
71109;BME280;59614;51.012;-1.648;2023-05-02T06:01:22;101574.88;;;9.96;98.74
71109;BME280;59614;51.012;-1.648;2023-05-02T06:03:48;101580.84;;;9.63;100.00
71109;BME280;59614;51.012;-1.648;2023-05-02T06:06:13;101573.88;;;9.71;100.00
71109;BME280;59614;51.012;-1.648;2023-05-02T06:08:39;101582.69;;;9.74;100.00
71109;BME280;59614;51.012;-1.648;2023-05-02T06:11:10;101591.69;;;10.23;99.37
71109;BME280;59614;51.012;-1.648;2023-05-02T06:13:36;101587.28;;;10.20;99.77
71109;BME280;59614;51.012;-1.648;2023-05-02T06:16:02;101592.53;;;10.14;99.48
71109;BME280;59614;51.012;-1.648;2023-05-02T06:18:27;101593.19;;;9.70;100.00
71109;BME280;59614;51.012;-1.648;2023-05-02T06:20:53;101594.09;;;9.80;100.00
71109;BME280;59614;51.012;-1.648;2023-05-02T06:23:18;101607.38;;;9.89;100.00
71109;BME280;59614;51.012;-1.648;2023-05-02T06:25:44;101605.81;;;10.30;100.00
71109;BME280;59614;51.012;-1.648;2023-05-02T06:28:09;101605.91;;;10.59;98.91
71109;BME280;59614;51.012;-1.648;2023-05-02T06:30:34;101615.59;;;10.57;97.48
71109;BME280;59614;51.012;-1.648;2023-05-02T06:33:03;101611.16;;;10.50;98.57
71109;BME280;59614;51.012;-1.648;2023-05-02T06:35:28;101612.72;;;10.08;99.28
71109;BME280;59614;51.012;-1.648;2023-05-02T06:37:54;101613.78;;;10.44;99.95
71109;BME280;59614;51.012;-1.648;2023-05-02T06:40:20;101620.91;;;10.73;97.76
71109;BME280;59614;51.012;-1.648;2023-05-02T06:42:45;101624.44;;;10.79;97.02
71109;BME280;59614;51.012;-1.648;2023-05-02T06:45:11;101618.88;;;10.07;99.12
71109;BME280;59614;51.012;-1.648;2023-05-02T06:47:36;101616.47;;;10.59;100.00
71109;BME280;59614;51.012;-1.648;2023-05-02T06:50:02;101627.97;;;10.77;98.96
71109;BME280;59614;51.012;-1.648;2023-05-02T06:52:27;101629.63;;;10.44;100.00
71109;BME280;59614;51.012;-1.648;2023-05-02T06:54:53;101621.78;;;10.81;99.79
71109;BME280;59614;51.012;-1.648;2023-05-02T06:57:18;101627.00;;;10.44;100.00
71109;BME280;59614;51.012;-1.648;2023-05-02T06:59:44;101625.31;;;10.92;99.15
71109;BME280;59614;51.012;-1.648;2023-05-02T07:02:09;101631.50;;;11.07;97.38
71109;BME280;59614;51.012;-1.648;2023-05-02T07:04:35;101628.84;;;10.85;97.94
71109;BME280;59614;51.012;-1.648;2023-05-02T07:07:01;101620.03;;;10.74;99.31
71109;BME280;59614;51.012;-1.648;2023-05-02T07:09:26;101624.41;;;10.81;100.00
71109;BME280;59614;51.012;-1.648;2023-05-02T07:11:51;101614.78;;;11.00;99.25
71109;BME280;59614;51.012;-1.648;2023-05-02T07:14:17;101613.91;;;10.90;98.86
71109;BME280;59614;51.012;-1.648;2023-05-02T07:16:42;101613.03;;;11.16;98.87
71109;BME280;59614;51.012;-1.648;2023-05-02T07:19:08;101623.59;;;11.22;98.38
71109;BME280;59614;51.012;-1.648;2023-05-02T07:21:33;101620.97;;;11.25;96.77
71109;BME280;59614;51.012;-1.648;2023-05-02T07:23:58;101628.88;;;11.44;97.74
71109;BME280;59614;51.012;-1.648;2023-05-02T07:26:24;101625.31;;;11.61;96.39
71109;BME280;59614;51.012;-1.648;2023-05-02T07:28:51;101632.41;;;11.34;95.89
71109;BME280;59614;51.012;-1.648;2023-05-02T07:31:17;101628.88;;;11.49;96.58
71109;BME280;59614;51.012;-1.648;2023-05-02T07:33:42;101628.88;;;11.59;96.64
71109;BME280;59614;51.012;-1.648;2023-05-02T07:36:08;101630.66;;;11.25;96.95
71109;BME280;59614;51.012;-1.648;2023-05-02T07:38:33;101632.41;;;11.55;96.01
71109;BME280;59614;51.012;-1.648;2023-05-02T07:40:59;101630.66;;;11.30;96.11
71109;BME280;59614;51.012;-1.648;2023-05-02T07:43:25;101621.81;;;11.55;95.86
71109;BME280;59614;51.012;-1.648;2023-05-02T07:45:52;101628.84;;;11.67;95.60
71109;BME280;59614;51.012;-1.648;2023-05-02T07:48:17;101629.78;;;11.41;96.67
71109;BME280;59614;51.012;-1.648;2023-05-02T07:50:43;101628.88;;;11.32;97.07
71109;BME280;59614;51.012;-1.648;2023-05-02T07:53:08;101617.38;;;11.81;97.11
71109;BME280;59614;51.012;-1.648;2023-05-02T07:55:35;101613.59;;;12.53;93.51
71109;BME280;59614;51.012;-1.648;2023-05-02T07:58:00;101619.38;;;13.16;89.40
71109;BME280;59614;51.012;-1.648;2023-05-02T08:00:25;101615.81;;;13.17;88.10
71109;BME280;59614;51.012;-1.648;2023-05-02T08:02:51;101611.06;;;13.59;85.64
71109;BME280;59614;51.012;-1.648;2023-05-02T08:05:16;101625.41;;;13.32;86.25
71109;BME280;59614;51.012;-1.648;2023-05-02T08:07:42;101618.31;;;13.40;84.93
71109;BME280;59614;51.012;-1.648;2023-05-02T08:10:07;101619.31;;;13.22;86.15
71109;BME280;59614;51.012;-1.648;2023-05-02T08:12:42;101622.56;;;13.58;85.57
71109;BME280;59614;51.012;-1.648;2023-05-02T08:15:10;101635.78;;;13.63;84.66
71109;BME280;59614;51.012;-1.648;2023-05-02T08:17:36;101631.44;;;13.54;84.88
71109;BME280;59614;51.012;-1.648;2023-05-02T08:20:02;101631.53;;;13.37;85.62
71109;BME280;59614;51.012;-1.648;2023-05-02T08:22:27;101644.13;;;13.11;86.44
71109;BME280;59614;51.012;-1.648;2023-05-02T08:24:52;101636.88;;;13.40;85.40
71109;BME280;59614;51.012;-1.648;2023-05-02T08:27:18;101643.88;;;13.46;85.39
71109;BME280;59614;51.012;-1.648;2023-05-02T08:29:43;101648.78;;;13.89;83.80
71109;BME280;59614;51.012;-1.648;2023-05-02T08:32:09;101647.03;;;13.85;83.36
71109;BME280;59614;51.012;-1.648;2023-05-02T08:34:34;101646.66;;;13.28;86.00
71109;BME280;59614;51.012;-1.648;2023-05-02T08:36:59;101638.47;;;13.58;85.59
71109;BME280;59614;51.012;-1.648;2023-05-02T08:39:25;101646.56;;;13.42;83.72
71109;BME280;59614;51.012;-1.648;2023-05-02T08:41:50;101638.00;;;13.05;85.67
71109;BME280;59614;51.012;-1.648;2023-05-02T08:44:16;101648.47;;;13.19;86.61
71109;BME280;59614;51.012;-1.648;2023-05-02T08:46:42;101658.50;;;13.87;83.76
71109;BME280;59614;51.012;-1.648;2023-05-02T08:49:09;101655.22;;;13.63;83.43
71109;BME280;59614;51.012;-1.648;2023-05-02T08:51:36;101662.38;;;13.56;84.27
71109;BME280;59614;51.012;-1.648;2023-05-02T08:54:03;101663.00;;;13.82;82.17
71109;BME280;59614;51.012;-1.648;2023-05-02T08:56:31;101658.06;;;13.41;84.08
71109;BME280;59614;51.012;-1.648;2023-05-02T08:58:57;101658.91;;;13.47;83.44
71109;BME280;59614;51.012;-1.648;2023-05-02T09:01:23;101667.84;;;13.28;83.12
71109;BME280;59614;51.012;-1.648;2023-05-02T09:03:53;101670.13;;;13.78;83.38
71109;BME280;59614;51.012;-1.648;2023-05-02T09:06:21;101669.25;;;13.76;83.47
71109;BME280;59614;51.012;-1.648;2023-05-02T09:08:48;101668.34;;;13.75;83.63
71109;BME280;59614;51.012;-1.648;2023-05-02T09:11:15;101674.88;;;14.29;81.48
71109;BME280;59614;51.012;-1.648;2023-05-02T09:13:45;101674.66;;;14.48;79.37
71109;BME280;59614;51.012;-1.648;2023-05-02T09:16:15;101677.94;;;14.65;78.28
71109;BME280;59614;51.012;-1.648;2023-05-02T09:18:46;101676.78;;;14.88;76.64
71109;BME280;59614;51.012;-1.648;2023-05-02T09:21:16;101671.00;;;14.55;79.29
71109;BME280;59614;51.012;-1.648;2023-05-02T09:23:44;101670.66;;;14.11;81.08
71109;BME280;59614;51.012;-1.648;2023-05-02T09:26:17;101672.00;;;14.48;79.98
71109;BME280;59614;51.012;-1.648;2023-05-02T09:28:52;101677.72;;;14.86;79.18
71109;BME280;59614;51.012;-1.648;2023-05-02T09:31:20;101688.22;;;14.96;78.65
71109;BME280;59614;51.012;-1.648;2023-05-02T09:33:46;101679.72;;;15.31;75.19
71109;BME280;59614;51.012;-1.648;2023-05-02T09:36:14;101680.63;;;14.67;78.61
71109;BME280;59614;51.012;-1.648;2023-05-02T09:38:41;101691.00;;;15.45;78.02
71109;BME280;59614;51.012;-1.648;2023-05-02T09:41:07;101692.13;;;15.30;76.20
71109;BME280;59614;51.012;-1.648;2023-05-02T09:43:33;101696.09;;;15.59;75.73
71109;BME280;59614;51.012;-1.648;2023-05-02T09:46:06;101692.22;;;15.79;73.18
71109;BME280;59614;51.012;-1.648;2023-05-02T09:48:50;101691.75;;;16.50;71.95
71109;BME280;59614;51.012;-1.648;2023-05-02T09:51:16;101690.34;;;15.85;72.90
71109;BME280;59614;51.012;-1.648;2023-05-02T09:53:43;101692.34;;;16.65;70.51
71109;BME280;59614;51.012;-1.648;2023-05-02T09:56:09;101706.84;;;16.04;71.39
71109;BME280;59614;51.012;-1.648;2023-05-02T09:58:34;101707.56;;;16.14;73.24
71109;BME280;59614;51.012;-1.648;2023-05-02T10:01:00;101705.28;;;14.77;74.81
71109;BME280;59614;51.012;-1.648;2023-05-02T10:03:26;101711.25;;;14.96;75.75
71109;BME280;59614;51.012;-1.648;2023-05-02T10:05:53;101718.28;;;14.98;77.04
71109;BME280;59614;51.012;-1.648;2023-05-02T10:08:19;101718.13;;;14.39;78.89
71109;BME280;59614;51.012;-1.648;2023-05-02T10:10:56;101717.50;;;14.92;78.32
71109;BME280;59614;51.012;-1.648;2023-05-02T10:13:23;101732.69;;;15.44;75.52
71109;BME280;59614;51.012;-1.648;2023-05-02T10:15:59;101726.47;;;15.44;74.02
71109;BME280;59614;51.012;-1.648;2023-05-02T10:18:27;101714.22;;;15.34;73.60
71109;BME280;59614;51.012;-1.648;2023-05-02T10:20:58;101711.34;;;15.49;73.73
71109;BME280;59614;51.012;-1.648;2023-05-02T10:23:28;101710.03;;;16.24;70.37
71109;BME280;59614;51.012;-1.648;2023-05-02T10:25:57;101714.50;;;16.21;71.06
71109;BME280;59614;51.012;-1.648;2023-05-02T10:28:22;101724.63;;;15.49;72.91
71109;BME280;59614;51.012;-1.648;2023-05-02T10:30:49;101723.25;;;15.80;72.20
71109;BME280;59614;51.012;-1.648;2023-05-02T10:33:16;101715.25;;;16.30;71.82
71109;BME280;59614;51.012;-1.648;2023-05-02T10:35:43;101718.44;;;16.47;71.86
71109;BME280;59614;51.012;-1.648;2023-05-02T10:38:11;101717.44;;;16.55;68.62
71109;BME280;59614;51.012;-1.648;2023-05-02T10:40:38;101719.75;;;16.72;66.05
71109;BME280;59614;51.012;-1.648;2023-05-02T10:43:04;101729.78;;;17.01;65.84
71109;BME280;59614;51.012;-1.648;2023-05-02T10:45:35;101739.31;;;16.25;68.41
71109;BME280;59614;51.012;-1.648;2023-05-02T10:48:20;101734.81;;;16.73;67.97
71109;BME280;59614;51.012;-1.648;2023-05-02T10:50:57;101729.81;;;16.10;70.13
71109;BME280;59614;51.012;-1.648;2023-05-02T10:53:31;101730.78;;;16.53;68.62
71109;BME280;59614;51.012;-1.648;2023-05-02T10:58:33;101723.34;;;16.69;67.98
71109;BME280;59614;51.012;-1.648;2023-05-02T11:04:06;101735.19;;;16.09;68.95
71109;BME280;59614;51.012;-1.648;2023-05-02T11:06:34;101743.13;;;16.10;68.59
71109;BME280;59614;51.012;-1.648;2023-05-02T11:11:47;101738.69;;;17.00;67.51
71109;BME280;59614;51.012;-1.648;2023-05-02T11:19:26;101738.91;;;16.89;63.95
71109;BME280;59614;51.012;-1.648;2023-05-02T11:21:53;101735.38;;;16.87;65.00
71109;BME280;59614;51.012;-1.648;2023-05-02T11:24:39;101735.50;;;17.61;63.12
71109;BME280;59614;51.012;-1.648;2023-05-02T11:30:07;101728.38;;;17.62;63.09
71109;BME280;59614;51.012;-1.648;2023-05-02T11:37:42;101720.59;;;17.14;64.92
71109;BME280;59614;51.012;-1.648;2023-05-02T11:40:11;101714.84;;;18.35;62.53
71109;BME280;59614;51.012;-1.648;2023-05-02T11:42:37;101710.72;;;20.23;59.29
71109;BME280;59614;51.012;-1.648;2023-05-02T11:45:02;101722.09;;;19.77;55.78
71109;BME280;59614;51.012;-1.648;2023-05-02T11:47:31;101713.09;;;19.53;57.80
71109;BME280;59614;51.012;-1.648;2023-05-02T11:49:57;101698.88;;;21.66;54.89
71109;BME280;59614;51.012;-1.648;2023-05-02T11:52:24;101699.75;;;19.51;56.09
71109;BME280;59614;51.012;-1.648;2023-05-02T11:54:54;101688.38;;;19.71;56.98
71109;BME280;59614;51.012;-1.648;2023-05-02T11:57:22;101698.44;;;18.79;61.48
71109;BME280;59614;51.012;-1.648;2023-05-02T11:59:57;101704.63;;;18.51;60.82
71109;BME280;59614;51.012;-1.648;2023-05-02T12:02:39;101707.22;;;17.52;64.77
71109;BME280;59614;51.012;-1.648;2023-05-02T12:05:09;101712.69;;;18.80;62.54
71109;BME280;59614;51.012;-1.648;2023-05-02T12:07:45;101712.34;;;17.96;62.77
71109;BME280;59614;51.012;-1.648;2023-05-02T12:10:13;101704.47;;;19.97;59.59
71109;BME280;59614;51.012;-1.648;2023-05-02T12:12:41;101709.44;;;17.35;64.47
71109;BME280;59614;51.012;-1.648;2023-05-02T12:15:09;101711.56;;;17.20;66.64
71109;BME280;59614;51.012;-1.648;2023-05-02T12:17:38;101716.13;;;16.73;67.74
71109;BME280;59614;51.012;-1.648;2023-05-02T12:20:06;101718.34;;;16.54;69.34
71109;BME280;59614;51.012;-1.648;2023-05-02T12:22:32;101717.34;;;16.58;69.62
71109;BME280;59614;51.012;-1.648;2023-05-02T12:24:57;101716.88;;;16.79;69.62
71109;BME280;59614;51.012;-1.648;2023-05-02T12:27:23;101715.00;;;17.98;65.03
71109;BME280;59614;51.012;-1.648;2023-05-02T12:29:49;101714.09;;;18.92;62.47
71109;BME280;59614;51.012;-1.648;2023-05-02T12:32:27;101719.84;;;19.65;58.66
71109;BME280;59614;51.012;-1.648;2023-05-02T12:34:53;101717.38;;;18.72;59.93
71109;BME280;59614;51.012;-1.648;2023-05-02T12:37:22;101723.81;;;18.01;62.76
71109;BME280;59614;51.012;-1.648;2023-05-02T12:39:48;101722.84;;;18.37;62.58
71109;BME280;59614;51.012;-1.648;2023-05-02T12:42:16;101727.78;;;17.85;64.53
71109;BME280;59614;51.012;-1.648;2023-05-02T12:44:43;101730.06;;;17.28;64.91
71109;BME280;59614;51.012;-1.648;2023-05-02T12:47:11;101724.75;;;17.64;66.00
71109;BME280;59614;51.012;-1.648;2023-05-02T12:49:57;101727.97;;;17.41;65.46
71109;BME280;59614;51.012;-1.648;2023-05-02T12:52:45;101726.63;;;17.60;65.80
71109;BME280;59614;51.012;-1.648;2023-05-02T12:55:17;101713.16;;;17.65;66.05
71109;BME280;59614;51.012;-1.648;2023-05-02T12:57:43;101722.91;;;17.66;65.44
71109;BME280;59614;51.012;-1.648;2023-05-02T13:00:09;101718.56;;;18.31;63.11
71109;BME280;59614;51.012;-1.648;2023-05-02T13:02:35;101735.50;;;17.97;63.34
71109;BME280;59614;51.012;-1.648;2023-05-02T13:05:00;101735.22;;;17.36;63.66
71109;BME280;59614;51.012;-1.648;2023-05-02T13:07:26;101732.75;;;17.64;63.68
71109;BME280;59614;51.012;-1.648;2023-05-02T13:09:51;101743.13;;;18.11;64.21
71109;BME280;59614;51.012;-1.648;2023-05-02T13:12:17;101755.91;;;16.83;65.00
71109;BME280;59614;51.012;-1.648;2023-05-02T13:14:42;101739.66;;;17.37;66.05
71109;BME280;59614;51.012;-1.648;2023-05-02T13:17:08;101737.78;;;17.01;65.01
71109;BME280;59614;51.012;-1.648;2023-05-02T13:19:34;101736.81;;;17.44;65.43
71109;BME280;59614;51.012;-1.648;2023-05-02T13:21:59;101734.03;;;17.84;63.61
71109;BME280;59614;51.012;-1.648;2023-05-02T13:24:26;101739.19;;;17.55;63.81
71109;BME280;59614;51.012;-1.648;2023-05-02T13:26:51;101739.25;;;17.14;64.45
71109;BME280;59614;51.012;-1.648;2023-05-02T13:29:17;101738.19;;;18.30;62.19